Time;durP1;ratioP1;P1;durP2;ratioP2;P2;SDS_P1;SDS_P2;PMS_P1;PMS_P2;Temp;Humidity;BMP_temperature;BMP_pressure;BME280_temperature;BME280_humidity;BME280_pressure;Samples;Min_cycle;Max_cycle;Signal;HPM_P1;HPM_P2
2023/01/06 00:01:09;;;;;;;2.85;1.85;;;;;;;7.46;100.00;98356.78;1748800;81;21680;-67
2023/01/06 00:03:38;;;;;;;2.80;2.10;;;;;;;7.46;100.00;98346.08;1778899;80;21626;-66
2023/01/06 00:06:06;;;;;;;2.55;2.10;;;;;;;7.45;100.00;98356.50;1785382;80;20965;-66
2023/01/06 00:08:34;;;;;;;2.50;2.30;;;;;;;7.42;100.00;98372.55;1780636;80;21079;-64
2023/01/06 00:11:11;;;;;;;3.12;2.67;;;;;;;7.41;100.00;98372.27;1782507;79;21016;-67
2023/01/06 00:13:38;;;;;;;3.83;2.98;;;;;;;7.37;100.00;98365.04;1759730;80;20965;-66
2023/01/06 00:16:12;;;;;;;1.85;1.75;;;;;;;7.30;100.00;98374.62;1783638;80;21033;-67
2023/01/06 00:18:39;;;;;;;2.37;2.20;;;;;;;7.24;100.00;98380.23;1781645;79;21040;-67
2023/01/06 00:21:07;;;;;;;3.83;2.12;;;;;;;7.22;100.00;98379.67;1750670;80;21061;-68
2023/01/06 00:23:34;;;;;;;2.42;2.08;;;;;;;7.19;100.00;98379.67;1784752;80;21553;-68
2023/01/06 00:26:02;;;;;;;2.65;1.80;;;;;;;7.18;100.00;98394.63;1780138;80;21005;-67
2023/01/06 00:28:29;;;;;;;2.95;2.30;;;;;;;7.14;100.00;98393.02;1773955;79;20924;-67
2023/01/06 00:30:56;;;;;;;3.12;1.87;;;;;;;7.11;100.00;98386.02;1799468;79;21078;-70
2023/01/06 00:33:23;;;;;;;1.82;1.72;;;;;;;7.08;100.00;98394.04;1785715;80;21146;-75
2023/01/06 00:35:49;;;;;;;2.25;2.10;;;;;;;7.06;100.00;98410.05;1785801;80;20908;-74
2023/01/06 00:38:16;;;;;;;1.55;1.45;;;;;;;7.01;100.00;98408.95;1780853;79;21019;-72
2023/01/06 00:40:43;;;;;;;1.37;1.27;;;;;;;6.96;100.00;98421.48;1781515;79;21023;-71
2023/01/06 00:43:09;;;;;;;1.50;1.40;;;;;;;6.88;100.00;98417.43;1766302;80;21049;-71
2023/01/06 00:45:36;;;;;;;1.35;1.25;;;;;;;6.79;100.00;98418.16;1785709;80;21213;-70
2023/01/06 00:48:03;;;;;;;1.20;1.10;;;;;;;6.58;100.00;98433.22;1765972;79;21526;-71
2023/01/06 00:50:31;;;;;;;1.60;1.50;;;;;;;6.34;100.00;98446.63;1772018;80;21033;-70
2023/01/06 00:52:58;;;;;;;1.00;1.00;;;;;;;6.27;100.00;98463.39;1768052;80;21053;-70
2023/01/06 00:55:24;;;;;;;1.40;1.30;;;;;;;6.13;100.00;98445.11;1783730;79;21017;-70
2023/01/06 00:57:51;;;;;;;1.05;1.05;;;;;;;6.08;100.00;98454.92;1769537;80;21143;-70
2023/01/06 01:00:18;;;;;;;1.10;1.10;;;;;;;6.05;100.00;98466.89;1748742;80;20993;-70
2023/01/06 01:02:45;;;;;;;1.17;1.17;;;;;;;5.95;100.00;98467.30;1753573;80;20992;-69
2023/01/06 01:05:12;;;;;;;1.12;1.12;;;;;;;5.87;100.00;98446.41;1767237;80;20938;-71
2023/01/06 01:07:39;;;;;;;2.02;1.70;;;;;;;5.77;100.00;98483.60;1774634;80;21135;-70
2023/01/06 01:10:08;;;;;;;2.87;2.08;;;;;;;5.60;100.00;98472.48;1781129;80;21923;-70
2023/01/06 01:12:35;;;;;;;1.60;1.50;;;;;;;5.52;100.00;98485.41;1780778;80;21009;-69
2023/01/06 01:15:02;;;;;;;2.05;1.95;;;;;;;5.51;100.00;98487.82;1779345;80;22251;-72
2023/01/06 01:17:30;;;;;;;1.52;1.42;;;;;;;5.52;100.00;98496.89;1738731;81;21411;-70
2023/01/06 01:19:58;;;;;;;2.67;2.45;;;;;;;5.48;100.00;98491.77;1778344;80;21111;-69
2023/01/06 01:22:29;;;;;;;2.30;2.10;;;;;;;5.46;100.00;98488.56;1780662;80;23168;-66
2023/01/06 01:24:56;;;;;;;3.15;2.60;;;;;;;5.40;100.00;98500.20;1780205;80;21102;-67
2023/01/06 01:27:24;;;;;;;2.27;2.08;;;;;;;5.37;100.00;98502.55;1775056;80;20958;-67
2023/01/06 01:29:52;;;;;;;2.98;2.67;;;;;;;5.22;100.00;98510.62;1781026;80;21759;-67
2023/01/06 01:32:18;;;;;;;3.65;3.22;;;;;;;5.14;100.00;98507.53;1780755;80;20975;-70
2023/01/06 01:34:46;;;;;;;3.60;3.33;;;;;;;5.05;100.00;98519.65;1780467;80;21130;-70
2023/01/06 01:37:14;;;;;;;2.33;2.12;;;;;;;5.05;100.00;98527.12;1778893;80;21588;-70
2023/01/06 01:39:41;;;;;;;2.92;2.70;;;;;;;5.06;100.00;98533.27;1784603;80;20923;-70
2023/01/06 01:42:15;;;;;;;3.27;3.05;;;;;;;5.01;100.00;98535.32;1774684;80;21016;-71
2023/01/06 01:44:59;;;;;;;2.33;2.12;;;;;;;5.00;100.00;98544.36;1750142;81;21026;-70
2023/01/06 01:47:37;;;;;;;2.60;2.40;;;;;;;4.86;100.00;98555.56;1772099;79;21230;-72
2023/01/06 01:50:18;;;;;;;2.87;2.65;;;;;;;4.59;100.00;98571.35;1750765;81;21067;-71
2023/01/06 01:52:45;;;;;;;3.00;2.45;;;;;;;4.43;100.00;98562.27;1754570;81;20971;-70
2023/01/06 01:55:11;;;;;;;2.12;2.02;;;;;;;4.42;100.00;98568.63;1768609;81;21032;-70
2023/01/06 01:57:48;;;;;;;1.80;1.70;;;;;;;4.34;100.00;98580.98;1784450;78;20986;-70
2023/01/06 02:00:14;;;;;;;1.57;1.50;;;;;;;4.21;100.00;98578.09;1785006;80;21107;-70
2023/01/06 02:02:41;;;;;;;2.52;2.33;;;;;;;4.08;100.00;98587.64;1778228;80;21019;-69
2023/01/06 02:05:11;;;;;;;1.95;1.85;;;;;;;4.02;100.00;98599.25;1752777;79;21008;-70
2023/01/06 02:07:39;;;;;;;1.82;1.72;;;;;;;3.88;100.00;98605.34;1740496;81;21677;-69
2023/01/06 02:10:11;;;;;;;1.62;1.52;;;;;;;3.85;100.00;98609.78;1760485;80;21091;-70
2023/01/06 02:12:39;;;;;;;1.72;1.62;;;;;;;3.77;100.00;98608.00;1772031;80;21143;-70
2023/01/06 02:15:20;;;;;;;1.10;1.10;;;;;;;3.69;100.00;98603.86;1767702;80;21010;-69
2023/01/06 02:18:15;;;;;;;1.50;1.40;;;;;;;3.59;100.00;98619.58;1765685;80;20930;-69
2023/01/06 02:20:53;;;;;;;1.50;1.40;;;;;;;3.54;100.00;98631.41;1777627;80;21583;-70
2023/01/06 02:23:40;;;;;;;1.55;1.45;;;;;;;3.57;100.00;98636.27;1773479;80;21040;-68
2023/01/06 02:26:49;;;;;;;2.90;2.60;;;;;;;3.54;100.00;98646.55;1769059;80;21740;-69
2023/01/06 02:29:34;;;;;;;1.65;1.55;;;;;;;3.54;100.00;98658.52;1763359;80;21570;-67
2023/01/06 02:32:21;;;;;;;3.52;2.08;;;;;;;3.38;100.00;98658.66;1762172;80;21071;-69
2023/01/06 02:35:08;;;;;;;1.80;1.70;;;;;;;3.02;100.00;98677.67;1760830;80;21480;-69
2023/01/06 02:38:10;;;;;;;1.75;1.65;;;;;;;3.02;100.00;98677.67;1732139;80;21603;-69
2023/01/06 02:41:10;;;;;;;3.77;3.30;;;;;;;2.82;100.00;98676.34;1777964;80;21155;-69
2023/01/06 02:43:51;;;;;;;2.55;2.35;;;;;;;2.73;100.00;98683.81;1771522;80;21018;-69
2023/01/06 02:46:46;;;;;;;3.87;2.62;;;;;;;2.64;100.00;98695.23;1773536;79;21517;-70
2023/01/06 02:49:29;;;;;;;2.83;2.62;;;;;;;2.60;100.00;98704.68;1770911;80;21033;-70
2023/01/06 02:52:07;;;;;;;2.67;2.47;;;;;;;2.60;100.00;98702.02;1774326;80;21030;-70
2023/01/06 02:55:05;;;;;;;3.30;3.10;;;;;;;2.57;100.00;98710.44;1772430;80;21096;-69
2023/01/06 02:57:52;;;;;;;3.10;2.90;;;;;;;2.57;100.00;98714.94;1754740;80;21046;-69
2023/01/06 03:00:33;;;;;;;2.87;2.67;;;;;;;2.52;100.00;98717.45;1768090;80;20955;-69
2023/01/06 03:03:03;;;;;;;3.42;3.12;;;;;;;2.47;100.00;98728.72;1769029;80;21121;-69
2023/01/06 03:05:33;;;;;;;3.10;2.90;;;;;;;2.38;100.00;98734.55;1742425;80;21157;-69
2023/01/06 03:08:07;;;;;;;3.40;3.20;;;;;;;2.32;100.00;98746.03;1769462;80;21404;-70
2023/01/06 03:10:36;;;;;;;2.87;2.60;;;;;;;2.30;100.00;98760.05;1769985;80;22254;-70
2023/01/06 03:13:09;;;;;;;4.17;3.83;;;;;;;2.22;100.00;98767.75;1765509;80;20957;-69
2023/01/06 03:15:37;;;;;;;4.55;4.25;;;;;;;2.16;100.00;98773.41;1780317;80;21016;-68
2023/01/06 03:18:04;;;;;;;4.28;3.98;;;;;;;2.19;100.00;98782.78;1734436;80;21011;-68
2023/01/06 03:20:31;;;;;;;5.40;4.28;;;;;;;2.22;100.00;98784.99;1761854;80;21855;-68
2023/01/06 03:22:58;;;;;;;4.12;3.83;;;;;;;2.23;100.00;98789.27;1749246;81;21037;-69
2023/01/06 03:25:27;;;;;;;5.08;4.67;;;;;;;2.22;100.00;98786.83;1751913;81;21051;-68
2023/01/06 03:27:55;;;;;;;5.42;5.03;;;;;;;2.18;100.00;98787.79;1782109;78;22279;-68
2023/01/06 03:30:22;;;;;;;5.72;5.33;;;;;;;2.18;100.00;98784.62;1785709;79;21087;-68
2023/01/06 03:32:59;;;;;;;4.53;4.10;;;;;;;2.07;100.00;98796.45;1785606;78;21475;-68
2023/01/06 03:35:50;;;;;;;4.28;3.98;;;;;;;2.05;100.00;98790.05;1782237;78;21070;-68
2023/01/06 03:38:37;;;;;;;4.92;4.58;;;;;;;2.06;100.00;98794.30;1726614;81;21066;-68
2023/01/06 03:44:25;;;;;;;4.70;4.30;;;;;;;1.94;100.00;98833.17;1768191;80;21040;-70
2023/01/06 03:46:55;;;;;;;4.72;4.30;;;;;;;1.96;100.00;98836.94;1747042;80;21170;-69
2023/01/06 03:49:28;;;;;;;5.50;4.80;;;;;;;1.98;100.00;98858.22;1763602;80;21044;-69
2023/01/06 03:52:29;;;;;;;7.15;4.20;;;;;;;1.92;100.00;98863.59;1781257;79;21039;-70
2023/01/06 03:55:07;;;;;;;5.30;4.47;;;;;;;1.89;100.00;98863.48;1768366;80;20955;-69
2023/01/06 03:57:37;;;;;;;7.22;5.70;;;;;;;1.85;100.00;98882.69;1750574;80;21063;-68
2023/01/06 04:00:14;;;;;;;7.35;6.62;;;;;;;1.86;100.00;98869.23;1769071;80;21138;-68
2023/01/06 04:02:42;;;;;;;12.37;7.47;;;;;;;1.86;100.00;98879.83;1776087;80;21077;-69
2023/01/06 04:05:13;;;;;;;7.28;6.45;;;;;;;1.87;100.00;98881.97;1782992;79;21007;-69
2023/01/06 04:07:41;;;;;;;9.88;7.42;;;;;;;1.79;100.00;98889.65;1780582;79;21663;-69
2023/01/06 04:10:09;;;;;;;11.00;7.42;;;;;;;1.78;100.00;98899.95;1760903;81;21041;-68
2023/01/06 04:12:39;;;;;;;8.73;6.70;;;;;;;1.80;100.00;98903.21;1775216;80;21877;-70
2023/01/06 04:15:12;;;;;;;7.65;6.03;;;;;;;1.82;100.00;98917.08;1752989;81;21012;-67
2023/01/06 04:17:39;;;;;;;16.62;7.20;;;;;;;1.78;100.00;98920.34;1751877;80;21065;-67
2023/01/06 04:20:09;;;;;;;6.40;5.12;;;;;;;1.73;100.00;98935.55;1753401;80;22267;-67
2023/01/06 04:22:37;;;;;;;7.33;5.35;;;;;;;1.74;100.00;98931.88;1767437;80;21058;-68
2023/01/06 04:25:07;;;;;;;7.12;6.42;;;;;;;1.75;100.00;98941.47;1764079;80;21685;-68
2023/01/06 04:27:35;;;;;;;6.30;5.70;;;;;;;1.79;100.00;98951.13;1746878;81;21101;-67
2023/01/06 04:30:02;;;;;;;5.80;5.30;;;;;;;1.81;100.00;98966.32;1748055;80;21044;-68
2023/01/06 04:32:30;;;;;;;5.90;5.40;;;;;;;1.79;100.00;98961.22;1728070;81;21038;-66
2023/01/06 04:34:58;;;;;;;5.12;4.58;;;;;;;1.78;100.00;98966.72;1767066;81;21041;-67
2023/01/06 04:37:26;;;;;;;7.10;6.40;;;;;;;1.74;100.00;98968.48;1749807;80;21236;-67
2023/01/06 04:39:52;;;;;;;7.70;6.08;;;;;;;1.71;100.00;98967.59;1750027;80;20987;-68
2023/01/06 04:42:18;;;;;;;7.28;6.58;;;;;;;1.68;100.00;98977.77;1771318;80;20997;-67
2023/01/06 04:44:46;;;;;;;7.87;7.20;;;;;;;1.62;100.00;98983.94;1783900;79;21131;-70
2023/01/06 04:47:13;;;;;;;8.65;6.37;;;;;;;1.59;100.00;98994.42;1759812;81;21087;-67
2023/01/06 04:49:39;;;;;;;7.85;6.95;;;;;;;1.61;100.00;99006.16;1770247;80;21002;-67
2023/01/06 04:52:07;;;;;;;7.80;7.00;;;;;;;1.62;100.00;99009.11;1760552;80;21534;-65
2023/01/06 04:54:36;;;;;;;7.95;7.03;;;;;;;1.59;100.00;99016.13;1774505;80;21566;-66
2023/01/06 04:57:02;;;;;;;8.70;7.42;;;;;;;1.56;100.00;99012.08;1751514;80;21034;-68
2023/01/06 04:59:30;;;;;;;9.18;6.80;;;;;;;1.58;100.00;99025.13;1741872;80;21095;-65
2023/01/06 05:01:57;;;;;;;8.43;7.62;;;;;;;1.56;100.00;99037.76;1761702;80;21138;-67
2023/01/06 05:04:23;;;;;;;8.50;7.67;;;;;;;1.49;100.00;99031.64;1766418;80;21074;-67
2023/01/06 05:06:51;;;;;;;6.65;6.03;;;;;;;1.49;100.00;99040.92;1761064;80;20968;-66
2023/01/06 05:09:18;;;;;;;7.12;6.45;;;;;;;1.48;100.00;99048.59;1772104;80;21143;-67
2023/01/06 05:11:44;;;;;;;7.80;7.08;;;;;;;1.46;100.00;99066.52;1770726;80;21012;-65
2023/01/06 05:14:12;;;;;;;7.08;6.35;;;;;;;1.44;100.00;99060.62;1770889;80;21250;-69
2023/01/06 05:16:39;;;;;;;7.08;6.47;;;;;;;1.40;100.00;99069.47;1761167;80;20933;-66
2023/01/06 05:19:06;;;;;;;10.75;9.60;;;;;;;1.41;100.00;99088.84;1742605;80;20995;-68
2023/01/06 05:21:32;;;;;;;7.83;7.03;;;;;;;1.31;100.00;99095.88;1760463;80;21063;-68
2023/01/06 05:24:00;;;;;;;10.72;8.78;;;;;;;1.37;100.00;99102.19;1769674;80;21124;-68
2023/01/06 05:26:27;;;;;;;10.98;9.80;;;;;;;1.37;100.00;99105.66;1773019;80;22077;-68
2023/01/06 05:28:54;;;;;;;9.03;8.13;;;;;;;1.36;100.00;99115.95;1752801;80;21823;-67
2023/01/06 05:31:20;;;;;;;8.48;7.67;;;;;;;1.35;100.00;99123.58;1774508;80;20974;-68
2023/01/06 05:33:48;;;;;;;7.80;7.08;;;;;;;1.36;100.00;99125.22;1772440;80;21057;-68
2023/01/06 05:36:16;;;;;;;8.83;7.92;;;;;;;1.33;100.00;99128.28;1772724;80;21498;-68
2023/01/06 05:38:42;;;;;;;9.13;7.22;;;;;;;1.28;100.00;99130.73;1774132;80;21771;-69
2023/01/06 05:41:10;;;;;;;7.42;6.67;;;;;;;1.29;100.00;99129.20;1768656;80;21006;-68
2023/01/06 05:43:37;;;;;;;10.40;8.45;;;;;;;1.30;100.00;99147.21;1773575;79;21001;-68
2023/01/06 05:46:06;;;;;;;8.78;7.97;;;;;;;1.28;100.00;99142.65;1756574;80;21388;-68
2023/01/06 05:48:32;;;;;;;8.75;7.67;;;;;;;1.24;100.00;99148.88;1743053;80;21002;-65
2023/01/06 05:51:07;;;;;;;6.62;5.83;;;;;;;1.22;100.00;99146.92;1766530;80;21696;-67
2023/01/06 05:53:35;;;;;;;7.40;6.60;;;;;;;1.23;100.00;99163.13;1759935;80;21654;-68
2023/01/06 05:56:03;;;;;;;6.97;6.30;;;;;;;1.22;100.00;99161.48;1764155;80;21014;-69
2023/01/06 05:58:32;;;;;;;7.42;6.55;;;;;;;1.23;100.00;99172.39;1736366;81;21519;-67
2023/01/06 06:01:01;;;;;;;8.10;7.30;;;;;;;1.26;100.00;99181.75;1755941;80;21024;-66
2023/01/06 06:03:28;;;;;;;5.87;5.28;;;;;;;1.34;100.00;99193.50;1760013;80;21151;-67
2023/01/06 06:05:55;;;;;;;8.48;7.55;;;;;;;1.29;100.00;99195.43;1754430;80;21118;-69
2023/01/06 06:08:22;;;;;;;6.85;6.20;;;;;;;1.27;100.00;99199.28;1757268;80;21491;-68
2023/01/06 06:10:50;;;;;;;6.80;6.20;;;;;;;1.25;100.00;99210.57;1753129;80;20964;-66
2023/01/06 06:13:16;;;;;;;7.20;6.50;;;;;;;1.18;100.00;99211.09;1763962;80;21074;-67
2023/01/06 06:15:43;;;;;;;5.78;5.28;;;;;;;1.14;100.00;99219.95;1762377;81;21182;-67
2023/01/06 06:18:10;;;;;;;6.40;5.80;;;;;;;1.12;100.00;99218.50;1768742;80;21012;-68
2023/01/06 06:20:37;;;;;;;5.40;4.90;;;;;;;1.11;100.00;99226.95;1771014;80;21618;-67
2023/01/06 06:23:04;;;;;;;6.12;5.60;;;;;;;1.11;100.00;99236.22;1764801;80;21039;-69
2023/01/06 06:25:31;;;;;;;7.37;5.30;;;;;;;1.15;100.00;99242.74;1761929;80;21066;-66
2023/01/06 06:27:58;;;;;;;5.78;5.30;;;;;;;1.13;100.00;99246.63;1761196;80;21178;-66
2023/01/06 06:30:25;;;;;;;5.53;5.03;;;;;;;1.13;100.00;99255.39;1763872;80;21008;-67
2023/01/06 06:32:51;;;;;;;4.67;4.28;;;;;;;1.13;100.00;99259.36;1750178;80;21043;-68
2023/01/06 06:35:18;;;;;;;3.87;3.58;;;;;;;1.13;100.00;99273.92;1750357;80;21007;-65
2023/01/06 06:37:44;;;;;;;4.25;3.95;;;;;;;1.15;100.00;99273.73;1760799;80;21063;-65
2023/01/06 06:40:11;;;;;;;4.62;4.20;;;;;;;1.05;100.00;99280.73;1753940;80;21268;-67
2023/01/06 06:42:39;;;;;;;7.17;3.33;;;;;;;1.04;100.00;99287.54;1720397;80;20938;-68
2023/01/06 06:45:07;;;;;;;6.50;5.47;;;;;;;1.00;100.00;99296.39;1767184;79;20965;-67
2023/01/06 06:47:33;;;;;;;4.28;3.62;;;;;;;0.94;100.00;99293.20;1757835;80;21028;-67
2023/01/06 06:50:00;;;;;;;5.22;4.75;;;;;;;0.97;100.00;99301.24;1758785;80;20985;-66
2023/01/06 06:52:27;;;;;;;3.85;3.55;;;;;;;0.93;100.00;99320.69;1766185;80;21137;-68
2023/01/06 06:54:53;;;;;;;3.95;3.65;;;;;;;0.96;100.00;99326.11;1769384;80;20989;-67
2023/01/06 06:57:20;;;;;;;5.20;4.17;;;;;;;0.95;100.00;99336.38;1764824;80;20978;-67
2023/01/06 06:59:46;;;;;;;3.60;3.33;;;;;;;0.91;100.00;99337.29;1761502;81;21090;-67
2023/01/06 07:02:13;;;;;;;8.00;4.20;;;;;;;0.87;100.00;99342.64;1762617;81;20988;-67
2023/01/06 07:04:40;;;;;;;4.73;4.07;;;;;;;0.81;100.00;99352.20;1764215;80;21122;-66
2023/01/06 07:07:07;;;;;;;5.60;4.53;;;;;;;0.82;100.00;99358.29;1768034;80;21023;-68
2023/01/06 07:09:33;;;;;;;3.77;3.50;;;;;;;0.84;100.00;99360.25;1761255;81;20959;-67
2023/01/06 07:12:00;;;;;;;3.45;3.15;;;;;;;0.84;100.00;99371.66;1769523;80;21053;-67
2023/01/06 07:14:26;;;;;;;4.65;3.70;;;;;;;0.79;100.00;99366.63;1765669;80;21368;-68
2023/01/06 07:16:53;;;;;;;3.40;3.10;;;;;;;0.79;100.00;99393.09;1774971;80;21816;-66
2023/01/06 07:19:20;;;;;;;4.40;4.00;;;;;;;0.76;100.00;99389.02;1768283;80;21647;-67
2023/01/06 07:21:46;;;;;;;6.20;4.37;;;;;;;0.76;100.00;99407.55;1771094;80;21065;-70
2023/01/06 07:24:13;;;;;;;5.03;4.60;;;;;;;0.76;100.00;99412.84;1770917;80;21055;-67
2023/01/06 07:26:40;;;;;;;3.25;2.87;;;;;;;0.79;100.00;99426.19;1747523;80;20972;-66
2023/01/06 07:29:06;;;;;;;5.90;5.30;;;;;;;0.77;100.00;99428.19;1742492;81;21066;-67
2023/01/06 07:31:33;;;;;;;4.40;3.57;;;;;;;0.79;100.00;99424.86;1747626;81;21536;-68
2023/01/06 07:34:00;;;;;;;4.63;4.23;;;;;;;0.80;100.00;99432.62;1770065;80;20997;-69
2023/01/06 07:36:26;;;;;;;4.77;4.20;;;;;;;0.77;100.00;99430.84;1770936;80;20963;-66
2023/01/06 07:38:53;;;;;;;4.33;3.92;;;;;;;0.76;100.00;99440.64;1762987;80;21031;-67
2023/01/06 07:41:19;;;;;;;5.83;4.63;;;;;;;0.75;100.00;99456.20;1765092;81;21138;-67
2023/01/06 07:43:46;;;;;;;4.00;3.60;;;;;;;0.63;100.00;99463.01;1760030;79;20974;-68
2023/01/06 07:46:12;;;;;;;3.20;2.90;;;;;;;0.56;100.00;99476.70;1766575;80;20994;-67
2023/01/06 07:48:39;;;;;;;4.17;3.10;;;;;;;0.52;99.36;99483.39;1776730;80;21019;-69
2023/01/06 07:51:05;;;;;;;4.37;4.00;;;;;;;0.54;99.48;99489.30;1761057;81;20967;-69
2023/01/06 07:53:32;;;;;;;2.83;2.63;;;;;;;0.51;99.25;99508.70;1767858;80;21244;-69
2023/01/06 07:55:58;;;;;;;3.67;2.73;;;;;;;0.40;98.65;99513.98;1763449;80;21086;-70
2023/01/06 07:58:26;;;;;;;3.57;3.27;;;;;;;0.41;98.56;99511.67;1775421;80;21018;-69
2023/01/06 08:00:52;;;;;;;2.67;2.47;;;;;;;0.36;98.37;99502.16;1775755;80;21531;-70
2023/01/06 08:03:19;;;;;;;3.20;2.97;;;;;;;0.33;97.83;99510.48;1744630;80;21623;-69
2023/01/06 08:05:45;;;;;;;3.07;2.83;;;;;;;0.33;97.58;99519.23;1744010;80;21155;-68
2023/01/06 08:08:12;;;;;;;3.40;3.10;;;;;;;0.31;97.41;99533.64;1761072;80;21082;-66
2023/01/06 08:10:41;;;;;;;3.60;3.30;;;;;;;0.26;97.18;99520.98;1771981;80;20973;-69
2023/01/06 08:13:08;;;;;;;3.80;3.50;;;;;;;0.28;97.24;99531.38;1773921;80;21084;-69
2023/01/06 08:15:36;;;;;;;4.40;4.00;;;;;;;0.32;97.23;99552.47;1763013;80;21062;-68
2023/01/06 08:18:03;;;;;;;3.80;3.50;;;;;;;0.30;97.15;99553.15;1761486;81;21753;-68
2023/01/06 08:20:32;;;;;;;3.50;3.20;;;;;;;0.28;97.40;99566.58;1769436;80;21011;-69
2023/01/06 08:23:00;;;;;;;5.00;4.43;;;;;;;0.24;96.62;99579.05;1776566;80;21458;-68
2023/01/06 08:25:27;;;;;;;6.17;5.63;;;;;;;0.22;96.33;99596.41;1769779;80;21027;-67
2023/01/06 08:27:53;;;;;;;4.70;4.23;;;;;;;0.23;96.32;99617.06;1776204;80;21033;-69
2023/01/06 08:30:20;;;;;;;4.43;4.03;;;;;;;0.22;95.75;99597.73;1772339;80;21252;-67
2023/01/06 08:32:48;;;;;;;4.23;3.90;;;;;;;0.18;94.53;99622.91;1770386;80;20953;-70
2023/01/06 08:35:15;;;;;;;4.57;4.17;;;;;;;0.17;94.82;99627.05;1767461;80;20994;-66
2023/01/06 08:37:42;;;;;;;4.63;4.20;;;;;;;0.18;94.68;99625.55;1766644;80;21009;-68
2023/01/06 08:40:10;;;;;;;5.23;4.73;;;;;;;0.17;94.05;99637.63;1772580;80;21049;-67
2023/01/06 08:42:37;;;;;;;4.07;3.67;;;;;;;0.06;93.79;99625.69;1763296;80;21133;-69
2023/01/06 08:45:06;;;;;;;4.90;4.40;;;;;;;-0.02;93.47;99632.41;1761791;80;21029;-68
2023/01/06 08:47:35;;;;;;;4.43;4.03;;;;;;;0.02;93.88;99632.35;1740999;80;21051;-70
2023/01/06 08:50:02;;;;;;;4.40;4.00;;;;;;;0.08;94.08;99638.73;1762369;81;21007;-68
2023/01/06 08:52:28;;;;;;;4.70;4.30;;;;;;;0.10;93.85;99640.17;1761049;81;21082;-70
2023/01/06 08:54:55;;;;;;;6.70;3.87;;;;;;;0.05;93.42;99652.33;1760531;81;21099;-69
2023/01/06 08:57:22;;;;;;;4.90;4.40;;;;;;;0.00;93.88;99654.20;1744499;81;20964;-68
2023/01/06 08:59:48;;;;;;;4.90;4.50;;;;;;;-0.02;94.16;99658.84;1741231;81;21020;-68
2023/01/06 09:02:15;;;;;;;4.43;4.03;;;;;;;0.03;94.42;99659.11;1748881;80;21014;-68
2023/01/06 09:04:42;;;;;;;5.17;4.20;;;;;;;0.05;94.52;99654.98;1768729;80;21079;-70
2023/01/06 09:07:09;;;;;;;4.20;3.90;;;;;;;0.02;94.69;99657.47;1763208;80;21159;-68
2023/01/06 09:09:35;;;;;;;5.30;4.80;;;;;;;-0.01;94.96;99658.66;1766644;80;21118;-70
2023/01/06 09:12:02;;;;;;;4.77;4.37;;;;;;;-0.03;95.32;99654.05;1771768;80;20960;-69
2023/01/06 09:14:30;;;;;;;5.23;4.70;;;;;;;-0.03;95.80;99659.84;1771726;80;21019;-68
2023/01/06 09:16:56;;;;;;;6.10;5.50;;;;;;;-0.12;95.75;99652.50;1764364;81;21042;-70
2023/01/06 09:19:23;;;;;;;6.43;5.53;;;;;;;-0.16;96.57;99667.59;1761455;80;21933;-69
2023/01/06 09:21:49;;;;;;;8.67;6.83;;;;;;;-0.13;96.72;99669.86;1757719;80;21698;-69
2023/01/06 09:24:16;;;;;;;6.53;5.93;;;;;;;-0.14;97.30;99667.70;1766330;80;21414;-69
2023/01/06 09:26:42;;;;;;;8.80;7.90;;;;;;;-0.16;97.75;99667.59;1753753;80;21638;-66
2023/01/06 09:29:09;;;;;;;15.13;11.33;;;;;;;-0.22;97.87;99673.59;1762238;80;21500;-66
2023/01/06 09:31:37;;;;;;;8.97;8.07;;;;;;;-0.28;98.14;99671.16;1765844;80;21544;-68
2023/01/06 09:34:03;;;;;;;10.20;8.23;;;;;;;-0.29;98.42;99695.15;1731591;81;20960;-67
2023/01/06 09:36:33;;;;;;;9.97;8.97;;;;;;;-0.34;98.43;99689.08;1757197;80;21443;-70
2023/01/06 09:38:59;;;;;;;9.00;8.10;;;;;;;-0.38;98.41;99711.55;1757227;80;21730;-65
2023/01/06 09:41:35;;;;;;;9.83;8.63;;;;;;;-0.49;98.08;99702.75;1772800;80;21029;-67
2023/01/06 09:44:18;;;;;;;9.03;8.13;;;;;;;-0.56;97.99;99683.32;1760432;80;21204;-70
2023/01/06 09:46:48;;;;;;;10.23;7.20;;;;;;;-0.57;98.34;99690.92;1730051;80;21017;-69
2023/01/06 09:49:42;;;;;;;8.50;7.70;;;;;;;-0.64;98.52;99693.47;1770473;80;21084;-72
2023/01/06 09:52:35;;;;;;;9.13;7.77;;;;;;;-0.60;98.52;99695.25;1756842;80;21066;-70
2023/01/06 09:55:14;;;;;;;9.23;8.20;;;;;;;-0.63;98.71;99707.50;1729678;81;32684;-71
2023/01/06 09:57:51;;;;;;;8.90;8.00;;;;;;;-0.59;98.79;99690.30;1704983;82;21149;-73
2023/01/06 10:00:50;;;;;;;12.33;8.60;;;;;;;-0.62;98.22;99715.72;1729218;82;20971;-74
2023/01/06 10:03:20;;;;;;;9.63;8.63;;;;;;;-0.83;97.53;99721.67;1717647;82;21590;-72
2023/01/06 10:05:55;;;;;;;9.43;7.93;;;;;;;-0.84;97.80;99744.28;1730825;82;21526;-76
2023/01/06 10:08:45;;;;;;;9.47;7.90;;;;;;;-0.85;97.65;99734.70;1730011;82;20971;-73
2023/01/06 10:11:39;;;;;;;9.33;8.10;;;;;;;-0.87;97.62;99723.52;1725891;82;21262;-74
2023/01/06 12:54:30;;;;;;;4.50;4.10;;;;;;;-2.88;94.96;99985.76;1725913;80;29075;-69
2023/01/06 12:57:37;;;;;;;5.07;3.90;;;;;;;-2.84;94.52;99989.72;1725026;83;21012;-71
2023/01/06 13:00:27;;;;;;;6.00;4.43;;;;;;;-2.79;93.71;99999.29;1725210;83;21155;-72
2023/01/06 13:03:40;;;;;;;4.37;3.97;;;;;;;-2.73;93.17;100002.59;1713016;83;20953;-69
2023/01/06 13:06:44;;;;;;;5.83;4.93;;;;;;;-2.62;93.16;100014.66;1727744;82;20980;-71
2023/01/06 13:09:28;;;;;;;4.67;4.27;;;;;;;-2.53;91.82;100042.67;1716359;83;20937;-71
2023/01/06 13:12:06;;;;;;;4.30;3.97;;;;;;;-2.57;90.36;100035.59;1721729;83;21038;-70
2023/01/06 13:15:04;;;;;;;5.20;4.73;;;;;;;-2.67;89.52;100034.39;1721641;83;21148;-67
2023/01/06 13:17:46;;;;;;;3.43;3.13;;;;;;;-2.69;89.69;100034.22;1721520;83;20940;-68
2023/01/06 13:20:41;;;;;;;4.47;4.10;;;;;;;-2.71;89.45;100048.02;1691500;83;20933;-72
2023/01/06 13:23:25;;;;;;;4.87;4.30;;;;;;;-2.77;89.61;100058.67;1727790;83;21016;-69
2023/01/06 13:26:31;;;;;;;5.43;4.40;;;;;;;-2.78;90.13;100054.38;1684002;83;21016;-68
2023/01/06 13:29:32;;;;;;;4.77;3.50;;;;;;;-2.78;90.26;100064.11;1718075;83;21236;-72
2023/01/06 13:32:19;;;;;;;4.80;3.57;;;;;;;-2.71;90.45;100071.70;1723552;81;20992;-71
2023/01/06 13:35:06;;;;;;;3.93;3.63;;;;;;;-2.62;90.38;100077.35;1752843;81;20978;-69
2023/01/06 13:37:43;;;;;;;3.60;3.30;;;;;;;-2.56;89.94;100090.39;1757623;81;21552;-71
2023/01/06 13:40:19;;;;;;;4.83;4.33;;;;;;;-2.48;89.90;100084.67;1705181;83;21087;-71
2023/01/06 13:43:00;;;;;;;4.87;3.50;;;;;;;-2.44;89.27;100095.22;1741675;81;21158;-73
2023/01/06 13:45:45;;;;;;;5.20;4.30;;;;;;;-2.44;88.72;100100.48;1731149;82;21002;-75
2023/01/06 13:48:19;;;;;;;6.27;4.30;;;;;;;-2.44;88.24;100095.70;1707080;82;21550;-76
2023/01/06 13:50:46;;;;;;;10.07;4.20;;;;;;;-2.40;88.42;100110.24;1708250;82;20951;-69
2023/01/06 13:53:19;;;;;;;4.70;4.20;;;;;;;-2.45;86.87;100098.03;1730758;81;21033;-68
2023/01/06 13:55:46;;;;;;;3.60;3.13;;;;;;;-2.56;86.20;100108.33;1731431;82;22170;-68
2023/01/06 13:58:29;;;;;;;3.83;3.53;;;;;;;-2.63;86.20;100094.13;1730185;82;21025;-69
2023/01/06 14:01:21;;;;;;;4.62;4.20;;;;;;;-2.67;86.17;100096.73;1725659;82;20990;-68
2023/01/06 14:03:49;;;;;;;3.73;3.43;;;;;;;-2.67;86.21;100104.14;1702570;84;21048;-68
2023/01/06 14:06:27;;;;;;;4.77;4.37;;;;;;;-2.71;85.74;100104.13;1702845;84;21058;-67
2023/01/06 14:08:57;;;;;;;5.37;4.47;;;;;;;-2.71;85.51;100107.24;1703415;82;21109;-67
2023/01/06 14:11:34;;;;;;;4.30;3.90;;;;;;;-2.72;85.15;100112.99;1729752;82;20997;-67
2023/01/06 14:14:07;;;;;;;3.80;3.57;;;;;;;-2.72;84.84;100124.84;1702574;84;21038;-67
2023/01/06 14:16:48;;;;;;;4.33;4.00;;;;;;;-2.75;84.45;100117.27;1641264;86;21564;-66
2023/01/06 14:19:24;;;;;;;4.72;4.00;;;;;;;-2.81;83.86;100120.98;1643370;85;20972;-67
2023/01/06 14:21:52;;;;;;;4.83;4.17;;;;;;;-2.78;84.31;100118.86;1673658;84;21145;-67
2023/01/06 14:24:30;;;;;;;4.87;4.37;;;;;;;-2.72;84.06;100130.11;1699509;84;21020;-69
2023/01/06 14:27:03;;;;;;;4.77;4.30;;;;;;;-2.73;83.77;100119.23;1699634;84;21034;-67
2023/01/06 14:29:44;;;;;;;4.27;3.80;;;;;;;-2.69;83.98;100119.28;1697496;84;21597;-68
2023/01/06 14:32:22;;;;;;;5.63;3.40;;;;;;;-2.69;83.10;100123.72;1684236;84;21063;-69
2023/01/06 14:34:57;;;;;;;4.40;4.00;;;;;;;-2.75;82.67;100141.44;1703307;82;21282;-69
2023/01/06 14:37:27;;;;;;;5.63;4.37;;;;;;;-2.78;82.72;100143.87;1651895;86;21054;-68